sensor_id;sensor_type;location;lat;lon;timestamp;temperature;humidity
5842;DHT22;2947;52.276;9.946;2023-05-14T00:01:50;13.80;99.90
5842;DHT22;2947;52.276;9.946;2023-05-14T00:04:26;13.80;99.90
5842;DHT22;2947;52.276;9.946;2023-05-14T00:07:18;13.80;99.90
5842;DHT22;2947;52.276;9.946;2023-05-14T00:10:00;13.80;99.90
5842;DHT22;2947;52.276;9.946;2023-05-14T00:12:43;13.70;99.90
5842;DHT22;2947;52.276;9.946;2023-05-14T00:15:17;13.70;99.90
5842;DHT22;2947;52.276;9.946;2023-05-14T00:17:49;13.60;99.90
5842;DHT22;2947;52.276;9.946;2023-05-14T00:20:24;13.70;1.00
5842;DHT22;2947;52.276;9.946;2023-05-14T00:23:00;13.60;1.00
5842;DHT22;2947;52.276;9.946;2023-05-14T00:25:36;13.60;1.00
5842;DHT22;2947;52.276;9.946;2023-05-14T00:28:12;13.50;1.00
5842;DHT22;2947;52.276;9.946;2023-05-14T00:30:50;13.60;1.00
5842;DHT22;2947;52.276;9.946;2023-05-14T00:33:35;13.50;1.00
5842;DHT22;2947;52.276;9.946;2023-05-14T00:36:10;13.60;1.00
5842;DHT22;2947;52.276;9.946;2023-05-14T00:38:47;13.50;1.00
5842;DHT22;2947;52.276;9.946;2023-05-14T00:41:30;13.40;1.00
5842;DHT22;2947;52.276;9.946;2023-05-14T00:44:01;13.40;1.00
5842;DHT22;2947;52.276;9.946;2023-05-14T00:46:33;13.40;54.80
5842;DHT22;2947;52.276;9.946;2023-05-14T00:49:21;13.40;99.90
5842;DHT22;2947;52.276;9.946;2023-05-14T00:51:58;13.40;99.90
5842;DHT22;2947;52.276;9.946;2023-05-14T00:54:34;13.40;99.90
5842;DHT22;2947;52.276;9.946;2023-05-14T00:57:10;13.30;1.00
5842;DHT22;2947;52.276;9.946;2023-05-14T00:59:42;13.20;1.00
5842;DHT22;2947;52.276;9.946;2023-05-14T01:02:11;13.20;1.00
5842;DHT22;2947;52.276;9.946;2023-05-14T01:04:50;13.20;99.90
5842;DHT22;2947;52.276;9.946;2023-05-14T01:16:15;12.90;99.90
5842;DHT22;2947;52.276;9.946;2023-05-14T01:18:58;12.90;1.00
5842;DHT22;2947;52.276;9.946;2023-05-14T01:21:42;12.80;99.90
5842;DHT22;2947;52.276;9.946;2023-05-14T01:24:17;12.80;99.90
5842;DHT22;2947;52.276;9.946;2023-05-14T01:26:54;12.70;99.90
5842;DHT22;2947;52.276;9.946;2023-05-14T01:32:53;12.60;1.00
5842;DHT22;2947;52.276;9.946;2023-05-14T01:35:30;12.60;5.40
5842;DHT22;2947;52.276;9.946;2023-05-14T01:38:10;12.60;99.90
5842;DHT22;2947;52.276;9.946;2023-05-14T01:40:47;12.50;1.00
5842;DHT22;2947;52.276;9.946;2023-05-14T01:43:18;12.50;66.90
5842;DHT22;2947;52.276;9.946;2023-05-14T01:45:49;12.50;1.00
5842;DHT22;2947;52.276;9.946;2023-05-14T01:48:23;12.50;99.90
5842;DHT22;2947;52.276;9.946;2023-05-14T01:50:58;12.50;99.90
5842;DHT22;2947;52.276;9.946;2023-05-14T01:53:35;12.50;99.90
5842;DHT22;2947;52.276;9.946;2023-05-14T01:56:11;12.40;1.00
5842;DHT22;2947;52.276;9.946;2023-05-14T01:58:43;12.50;99.90
5842;DHT22;2947;52.276;9.946;2023-05-14T02:01:19;12.30;99.90
5842;DHT22;2947;52.276;9.946;2023-05-14T02:03:55;12.30;99.90
5842;DHT22;2947;52.276;9.946;2023-05-14T02:06:32;12.20;99.90
5842;DHT22;2947;52.276;9.946;2023-05-14T02:09:08;12.10;99.90
5842;DHT22;2947;52.276;9.946;2023-05-14T02:11:49;12.10;99.90
5842;DHT22;2947;52.276;9.946;2023-05-14T02:14:24;12.00;1.00
5842;DHT22;2947;52.276;9.946;2023-05-14T02:17:05;12.00;99.90
5842;DHT22;2947;52.276;9.946;2023-05-14T02:19:44;12.00;1.00
5842;DHT22;2947;52.276;9.946;2023-05-14T02:22:19;12.00;1.00
5842;DHT22;2947;52.276;9.946;2023-05-14T02:24:55;12.00;99.90
5842;DHT22;2947;52.276;9.946;2023-05-14T02:27:30;12.00;99.90
5842;DHT22;2947;52.276;9.946;2023-05-14T02:30:11;12.00;20.60
5842;DHT22;2947;52.276;9.946;2023-05-14T02:32:47;11.90;1.00
5842;DHT22;2947;52.276;9.946;2023-05-14T02:35:17;11.90;1.00
5842;DHT22;2947;52.276;9.946;2023-05-14T02:37:44;11.80;1.00
5842;DHT22;2947;52.276;9.946;2023-05-14T02:44:12;11.80;99.90
5842;DHT22;2947;52.276;9.946;2023-05-14T02:46:38;11.80;99.90
5842;DHT22;2947;52.276;9.946;2023-05-14T02:49:13;11.70;99.90
5842;DHT22;2947;52.276;9.946;2023-05-14T02:51:45;11.70;99.90
5842;DHT22;2947;52.276;9.946;2023-05-14T02:54:11;11.60;99.90
5842;DHT22;2947;52.276;9.946;2023-05-14T02:56:43;11.60;85.60
5842;DHT22;2947;52.276;9.946;2023-05-14T02:59:12;11.60;1.00
5842;DHT22;2947;52.276;9.946;2023-05-14T03:01:38;11.60;92.50
5842;DHT22;2947;52.276;9.946;2023-05-14T03:04:17;11.60;99.90
5842;DHT22;2947;52.276;9.946;2023-05-14T03:06:43;11.70;99.90
5842;DHT22;2947;52.276;9.946;2023-05-14T03:09:13;11.60;1.00
5842;DHT22;2947;52.276;9.946;2023-05-14T03:11:49;11.50;1.00
5842;DHT22;2947;52.276;9.946;2023-05-14T03:14:22;11.50;1.00
5842;DHT22;2947;52.276;9.946;2023-05-14T03:16:59;11.50;57.70
5842;DHT22;2947;52.276;9.946;2023-05-14T03:19:28;11.50;99.90
5842;DHT22;2947;52.276;9.946;2023-05-14T03:24:58;11.40;99.90
5842;DHT22;2947;52.276;9.946;2023-05-14T03:27:26;11.40;1.00
5842;DHT22;2947;52.276;9.946;2023-05-14T03:30:11;11.40;1.00
5842;DHT22;2947;52.276;9.946;2023-05-14T03:36:27;11.30;1.00
5842;DHT22;2947;52.276;9.946;2023-05-14T03:38:52;11.10;99.90
5842;DHT22;2947;52.276;9.946;2023-05-14T03:41:18;11.60;99.90
5842;DHT22;2947;52.276;9.946;2023-05-14T03:43:46;11.10;99.90
5842;DHT22;2947;52.276;9.946;2023-05-14T03:46:11;11.10;99.90
5842;DHT22;2947;52.276;9.946;2023-05-14T03:48:37;11.10;99.90
5842;DHT22;2947;52.276;9.946;2023-05-14T03:51:03;10.80;99.90
5842;DHT22;2947;52.276;9.946;2023-05-14T03:53:28;11.10;99.90
5842;DHT22;2947;52.276;9.946;2023-05-14T03:55:54;11.10;99.90
5842;DHT22;2947;52.276;9.946;2023-05-14T03:58:21;11.10;99.90
5842;DHT22;2947;52.276;9.946;2023-05-14T04:00:46;11.10;99.90
5842;DHT22;2947;52.276;9.946;2023-05-14T04:03:12;11.10;99.90
5842;DHT22;2947;52.276;9.946;2023-05-14T04:05:38;11.10;99.90
5842;DHT22;2947;52.276;9.946;2023-05-14T04:08:03;11.10;99.90
5842;DHT22;2947;52.276;9.946;2023-05-14T04:10:30;11.10;99.90
5842;DHT22;2947;52.276;9.946;2023-05-14T04:12:56;11.10;99.90
5842;DHT22;2947;52.276;9.946;2023-05-14T04:15:22;11.10;99.90
5842;DHT22;2947;52.276;9.946;2023-05-14T04:17:48;11.10;99.90
5842;DHT22;2947;52.276;9.946;2023-05-14T04:20:13;11.10;99.90
5842;DHT22;2947;52.276;9.946;2023-05-14T04:22:39;11.10;99.90
5842;DHT22;2947;52.276;9.946;2023-05-14T04:25:05;11.10;99.90
5842;DHT22;2947;52.276;9.946;2023-05-14T04:27:32;11.00;99.90
5842;DHT22;2947;52.276;9.946;2023-05-14T04:29:58;11.10;99.90
5842;DHT22;2947;52.276;9.946;2023-05-14T04:32:24;11.10;99.90
5842;DHT22;2947;52.276;9.946;2023-05-14T04:34:50;11.10;1.00
5842;DHT22;2947;52.276;9.946;2023-05-14T04:37:15;11.10;99.90
5842;DHT22;2947;52.276;9.946;2023-05-14T04:39:41;11.10;1.00
5842;DHT22;2947;52.276;9.946;2023-05-14T04:42:07;11.10;1.00
5842;DHT22;2947;52.276;9.946;2023-05-14T04:44:34;11.10;1.00
5842;DHT22;2947;52.276;9.946;2023-05-14T04:47:00;11.10;1.00
5842;DHT22;2947;52.276;9.946;2023-05-14T04:49:27;11.10;1.00
5842;DHT22;2947;52.276;9.946;2023-05-14T04:51:53;11.10;1.00
5842;DHT22;2947;52.276;9.946;2023-05-14T04:54:19;11.20;99.90
5842;DHT22;2947;52.276;9.946;2023-05-14T04:56:45;11.20;99.90
5842;DHT22;2947;52.276;9.946;2023-05-14T04:59:12;11.30;99.90
5842;DHT22;2947;52.276;9.946;2023-05-14T05:01:37;11.30;99.90
5842;DHT22;2947;52.276;9.946;2023-05-14T05:04:03;11.40;99.90
5842;DHT22;2947;52.276;9.946;2023-05-14T05:06:29;11.40;99.90
5842;DHT22;2947;52.276;9.946;2023-05-14T05:08:55;11.50;99.90
5842;DHT22;2947;52.276;9.946;2023-05-14T05:11:21;11.60;99.90
5842;DHT22;2947;52.276;9.946;2023-05-14T05:13:47;11.70;99.90
5842;DHT22;2947;52.276;9.946;2023-05-14T05:16:12;11.80;99.90
5842;DHT22;2947;52.276;9.946;2023-05-14T05:18:38;12.00;99.90
5842;DHT22;2947;52.276;9.946;2023-05-14T05:21:04;12.10;99.90
5842;DHT22;2947;52.276;9.946;2023-05-14T05:23:31;13.40;59.70
5842;DHT22;2947;52.276;9.946;2023-05-14T05:25:56;12.50;1.00
5842;DHT22;2947;52.276;9.946;2023-05-14T05:28:22;12.70;1.00
5842;DHT22;2947;52.276;9.946;2023-05-14T05:30:48;12.80;99.90
5842;DHT22;2947;52.276;9.946;2023-05-14T05:33:13;12.90;99.90
5842;DHT22;2947;52.276;9.946;2023-05-14T05:35:39;14.00;99.90
5842;DHT22;2947;52.276;9.946;2023-05-14T05:38:06;13.30;1.00
5842;DHT22;2947;52.276;9.946;2023-05-14T05:40:32;13.50;99.90
5842;DHT22;2947;52.276;9.946;2023-05-14T05:42:58;13.60;1.00
5842;DHT22;2947;52.276;9.946;2023-05-14T05:45:23;13.80;99.90
5842;DHT22;2947;52.276;9.946;2023-05-14T05:47:49;13.90;1.00
5842;DHT22;2947;52.276;9.946;2023-05-14T05:50:15;14.00;99.90
5842;DHT22;2947;52.276;9.946;2023-05-14T05:52:41;14.10;99.90
5842;DHT22;2947;52.276;9.946;2023-05-14T05:55:06;14.20;1.00
5842;DHT22;2947;52.276;9.946;2023-05-14T05:57:32;14.30;82.00
5842;DHT22;2947;52.276;9.946;2023-05-14T05:59:58;14.50;55.90
5842;DHT22;2947;52.276;9.946;2023-05-14T06:02:24;15.40;99.90
5842;DHT22;2947;52.276;9.946;2023-05-14T06:04:50;14.70;99.90
5842;DHT22;2947;52.276;9.946;2023-05-14T06:07:16;14.90;99.90
5842;DHT22;2947;52.276;9.946;2023-05-14T06:09:42;15.00;1.00
5842;DHT22;2947;52.276;9.946;2023-05-14T06:12:08;15.10;99.90
5842;DHT22;2947;52.276;9.946;2023-05-14T06:14:33;15.20;99.90
5842;DHT22;2947;52.276;9.946;2023-05-14T06:16:59;15.40;99.90
5842;DHT22;2947;52.276;9.946;2023-05-14T06:19:25;15.60;99.90
5842;DHT22;2947;52.276;9.946;2023-05-14T06:21:51;15.70;99.90
5842;DHT22;2947;52.276;9.946;2023-05-14T06:24:16;15.80;99.90
5842;DHT22;2947;52.276;9.946;2023-05-14T06:26:44;15.90;99.90
5842;DHT22;2947;52.276;9.946;2023-05-14T06:29:09;16.00;3.00
5842;DHT22;2947;52.276;9.946;2023-05-14T06:31:35;16.00;1.00
5842;DHT22;2947;52.276;9.946;2023-05-14T06:34:01;16.00;85.70
5842;DHT22;2947;52.276;9.946;2023-05-14T06:36:27;16.10;1.00
5842;DHT22;2947;52.276;9.946;2023-05-14T06:38:53;16.20;1.00
5842;DHT22;2947;52.276;9.946;2023-05-14T06:41:18;16.20;1.00
5842;DHT22;2947;52.276;9.946;2023-05-14T06:43:44;16.30;1.00
5842;DHT22;2947;52.276;9.946;2023-05-14T06:46:10;17.40;1.00
5842;DHT22;2947;52.276;9.946;2023-05-14T06:48:36;16.40;99.90
5842;DHT22;2947;52.276;9.946;2023-05-14T06:51:01;16.60;99.90
5842;DHT22;2947;52.276;9.946;2023-05-14T06:53:28;17.50;99.90
5842;DHT22;2947;52.276;9.946;2023-05-14T06:55:53;16.80;99.90
5842;DHT22;2947;52.276;9.946;2023-05-14T06:58:20;16.90;99.90
5842;DHT22;2947;52.276;9.946;2023-05-14T07:00:46;17.10;98.90
5842;DHT22;2947;52.276;9.946;2023-05-14T07:03:12;16.40;1.00
5842;DHT22;2947;52.276;9.946;2023-05-14T07:05:38;17.20;1.00
5842;DHT22;2947;52.276;9.946;2023-05-14T07:08:05;17.50;1.00
5842;DHT22;2947;52.276;9.946;2023-05-14T07:10:30;17.50;1.00
5842;DHT22;2947;52.276;9.946;2023-05-14T07:12:57;17.70;1.00
5842;DHT22;2947;52.276;9.946;2023-05-14T07:15:22;17.70;1.00
5842;DHT22;2947;52.276;9.946;2023-05-14T07:17:48;17.90;1.00
5842;DHT22;2947;52.276;9.946;2023-05-14T07:20:14;17.90;1.00
5842;DHT22;2947;52.276;9.946;2023-05-14T07:22:39;17.90;1.00
5842;DHT22;2947;52.276;9.946;2023-05-14T07:25:05;17.00;1.00
5842;DHT22;2947;52.276;9.946;2023-05-14T07:27:32;17.90;1.00
5842;DHT22;2947;52.276;9.946;2023-05-14T07:29:57;17.90;1.00
5842;DHT22;2947;52.276;9.946;2023-05-14T07:32:23;17.80;1.00
5842;DHT22;2947;52.276;9.946;2023-05-14T07:34:49;18.10;1.00
5842;DHT22;2947;52.276;9.946;2023-05-14T07:37:15;18.40;1.00
5842;DHT22;2947;52.276;9.946;2023-05-14T07:39:41;18.40;1.00
5842;DHT22;2947;52.276;9.946;2023-05-14T07:42:06;18.40;1.00
5842;DHT22;2947;52.276;9.946;2023-05-14T07:44:32;18.40;1.00
5842;DHT22;2947;52.276;9.946;2023-05-14T07:46:58;18.40;1.00
5842;DHT22;2947;52.276;9.946;2023-05-14T07:49:23;18.50;1.00
5842;DHT22;2947;52.276;9.946;2023-05-14T07:51:49;18.70;1.00
5842;DHT22;2947;52.276;9.946;2023-05-14T07:54:15;18.70;1.00
5842;DHT22;2947;52.276;9.946;2023-05-14T07:56:41;18.80;1.00
5842;DHT22;2947;52.276;9.946;2023-05-14T07:59:06;18.80;1.00
5842;DHT22;2947;52.276;9.946;2023-05-14T08:01:32;18.90;1.00
5842;DHT22;2947;52.276;9.946;2023-05-14T08:03:58;19.20;1.00
5842;DHT22;2947;52.276;9.946;2023-05-14T08:06:24;19.30;1.00
5842;DHT22;2947;52.276;9.946;2023-05-14T08:08:51;19.30;99.90
5842;DHT22;2947;52.276;9.946;2023-05-14T08:11:17;19.40;99.90
5842;DHT22;2947;52.276;9.946;2023-05-14T08:13:43;19.70;99.90
5842;DHT22;2947;52.276;9.946;2023-05-14T08:16:09;19.90;99.90
5842;DHT22;2947;52.276;9.946;2023-05-14T08:18:34;20.00;99.90
5842;DHT22;2947;52.276;9.946;2023-05-14T08:21:00;19.10;99.90
5842;DHT22;2947;52.276;9.946;2023-05-14T08:23:26;20.20;99.90
5842;DHT22;2947;52.276;9.946;2023-05-14T08:25:51;20.50;99.90
5842;DHT22;2947;52.276;9.946;2023-05-14T08:28:17;20.40;99.90
5842;DHT22;2947;52.276;9.946;2023-05-14T08:30:43;20.80;99.90
5842;DHT22;2947;52.276;9.946;2023-05-14T08:33:08;20.70;99.90
5842;DHT22;2947;52.276;9.946;2023-05-14T08:35:34;20.70;99.90
5842;DHT22;2947;52.276;9.946;2023-05-14T08:38:00;21.40;99.90
5842;DHT22;2947;52.276;9.946;2023-05-14T08:40:26;20.90;99.90
5842;DHT22;2947;52.276;9.946;2023-05-14T08:42:52;21.00;99.90
5842;DHT22;2947;52.276;9.946;2023-05-14T08:45:20;21.10;99.90
5842;DHT22;2947;52.276;9.946;2023-05-14T08:47:50;21.20;99.90
5842;DHT22;2947;52.276;9.946;2023-05-14T08:50:16;21.20;99.90
5842;DHT22;2947;52.276;9.946;2023-05-14T08:52:44;21.30;99.90
5842;DHT22;2947;52.276;9.946;2023-05-14T08:55:11;21.30;99.90
5842;DHT22;2947;52.276;9.946;2023-05-14T08:57:37;21.20;99.90
5842;DHT22;2947;52.276;9.946;2023-05-14T09:00:03;21.40;99.90
5842;DHT22;2947;52.276;9.946;2023-05-14T09:02:36;21.70;99.90
5842;DHT22;2947;52.276;9.946;2023-05-14T09:05:04;21.60;99.90
5842;DHT22;2947;52.276;9.946;2023-05-14T09:07:32;21.60;99.90
5842;DHT22;2947;52.276;9.946;2023-05-14T09:09:58;21.80;99.90
5842;DHT22;2947;52.276;9.946;2023-05-14T09:12:24;21.60;99.90
5842;DHT22;2947;52.276;9.946;2023-05-14T09:14:50;21.70;99.90
5842;DHT22;2947;52.276;9.946;2023-05-14T09:17:16;21.70;99.90
5842;DHT22;2947;52.276;9.946;2023-05-14T09:19:43;21.60;99.90
5842;DHT22;2947;52.276;9.946;2023-05-14T09:22:14;21.40;99.90
5842;DHT22;2947;52.276;9.946;2023-05-14T09:24:41;21.60;99.90
5842;DHT22;2947;52.276;9.946;2023-05-14T09:27:08;21.80;99.90
5842;DHT22;2947;52.276;9.946;2023-05-14T09:29:39;21.80;99.90
5842;DHT22;2947;52.276;9.946;2023-05-14T09:32:05;21.90;99.90
5842;DHT22;2947;52.276;9.946;2023-05-14T09:34:33;21.80;99.90
5842;DHT22;2947;52.276;9.946;2023-05-14T09:37:04;22.00;99.90
5842;DHT22;2947;52.276;9.946;2023-05-14T09:39:32;22.20;99.90
5842;DHT22;2947;52.276;9.946;2023-05-14T09:41:58;22.40;99.90
5842;DHT22;2947;52.276;9.946;2023-05-14T09:44:24;22.50;99.90
5842;DHT22;2947;52.276;9.946;2023-05-14T09:46:51;22.60;99.90
5842;DHT22;2947;52.276;9.946;2023-05-14T09:49:18;22.70;99.90
5842;DHT22;2947;52.276;9.946;2023-05-14T09:51:44;22.70;99.90
5842;DHT22;2947;52.276;9.946;2023-05-14T09:54:10;22.70;99.90
5842;DHT22;2947;52.276;9.946;2023-05-14T09:56:36;22.90;99.90
5842;DHT22;2947;52.276;9.946;2023-05-14T09:59:02;23.00;99.90
5842;DHT22;2947;52.276;9.946;2023-05-14T10:01:29;23.00;99.90
5842;DHT22;2947;52.276;9.946;2023-05-14T10:03:56;23.60;99.90
5842;DHT22;2947;52.276;9.946;2023-05-14T10:06:27;23.10;99.90
5842;DHT22;2947;52.276;9.946;2023-05-14T10:09:04;23.80;99.90
5842;DHT22;2947;52.276;9.946;2023-05-14T10:11:37;23.10;99.90
5842;DHT22;2947;52.276;9.946;2023-05-14T10:14:08;24.00;99.90
5842;DHT22;2947;52.276;9.946;2023-05-14T10:16:47;23.60;99.90
5842;DHT22;2947;52.276;9.946;2023-05-14T10:19:16;23.20;99.90
5842;DHT22;2947;52.276;9.946;2023-05-14T10:21:46;23.30;99.90
5842;DHT22;2947;52.276;9.946;2023-05-14T10:24:13;23.10;99.90
5842;DHT22;2947;52.276;9.946;2023-05-14T10:26:40;23.20;99.90
5842;DHT22;2947;52.276;9.946;2023-05-14T10:29:08;23.40;99.90
5842;DHT22;2947;52.276;9.946;2023-05-14T10:31:52;23.30;99.90
5842;DHT22;2947;52.276;9.946;2023-05-14T10:34:40;23.50;99.90
5842;DHT22;2947;52.276;9.946;2023-05-14T10:37:12;23.50;99.90
5842;DHT22;2947;52.276;9.946;2023-05-14T10:42:27;23.80;99.90
5842;DHT22;2947;52.276;9.946;2023-05-14T10:45:04;23.30;99.90
5842;DHT22;2947;52.276;9.946;2023-05-14T10:47:33;23.30;99.90
5842;DHT22;2947;52.276;9.946;2023-05-14T10:50:05;23.50;99.90
5842;DHT22;2947;52.276;9.946;2023-05-14T10:52:32;23.40;99.90
5842;DHT22;2947;52.276;9.946;2023-05-14T10:55:01;23.40;99.90
5842;DHT22;2947;52.276;9.946;2023-05-14T10:57:30;23.50;99.90
5842;DHT22;2947;52.276;9.946;2023-05-14T10:59:58;23.50;99.90
5842;DHT22;2947;52.276;9.946;2023-05-14T11:02:27;23.50;99.90
5842;DHT22;2947;52.276;9.946;2023-05-14T11:07:34;23.70;99.90
5842;DHT22;2947;52.276;9.946;2023-05-14T11:12:36;23.90;99.90
5842;DHT22;2947;52.276;9.946;2023-05-14T11:15:26;23.90;99.90
5842;DHT22;2947;52.276;9.946;2023-05-14T11:17:52;24.20;99.90
5842;DHT22;2947;52.276;9.946;2023-05-14T11:20:19;24.20;99.90
5842;DHT22;2947;52.276;9.946;2023-05-14T11:22:46;24.30;99.90
5842;DHT22;2947;52.276;9.946;2023-05-14T11:25:13;24.40;99.90
5842;DHT22;2947;52.276;9.946;2023-05-14T11:27:41;24.30;99.90
5842;DHT22;2947;52.276;9.946;2023-05-14T11:30:15;24.50;99.90
5842;DHT22;2947;52.276;9.946;2023-05-14T11:32:44;24.60;99.90
5842;DHT22;2947;52.276;9.946;2023-05-14T11:35:11;24.60;99.90
5842;DHT22;2947;52.276;9.946;2023-05-14T11:37:36;24.60;99.90
5842;DHT22;2947;52.276;9.946;2023-05-14T11:40:07;25.10;99.90
5842;DHT22;2947;52.276;9.946;2023-05-14T11:42:36;24.60;99.90
5842;DHT22;2947;52.276;9.946;2023-05-14T11:45:03;24.60;99.90
5842;DHT22;2947;52.276;9.946;2023-05-14T11:47:29;24.60;99.90
5842;DHT22;2947;52.276;9.946;2023-05-14T11:49:56;24.50;99.90
5842;DHT22;2947;52.276;9.946;2023-05-14T11:52:21;24.70;99.90
5842;DHT22;2947;52.276;9.946;2023-05-14T11:54:47;24.70;99.90
5842;DHT22;2947;52.276;9.946;2023-05-14T11:57:17;24.70;99.90
5842;DHT22;2947;52.276;9.946;2023-05-14T11:59:44;24.70;99.90
5842;DHT22;2947;52.276;9.946;2023-05-14T12:02:15;24.90;99.90
5842;DHT22;2947;52.276;9.946;2023-05-14T12:04:42;24.80;99.90
5842;DHT22;2947;52.276;9.946;2023-05-14T12:07:13;24.70;99.90
5842;DHT22;2947;52.276;9.946;2023-05-14T12:09:42;24.90;99.90
5842;DHT22;2947;52.276;9.946;2023-05-14T12:12:15;25.10;99.90
5842;DHT22;2947;52.276;9.946;2023-05-14T12:14:44;25.00;99.90
5842;DHT22;2947;52.276;9.946;2023-05-14T12:17:18;25.10;99.90
5842;DHT22;2947;52.276;9.946;2023-05-14T12:19:47;25.70;99.90
5842;DHT22;2947;52.276;9.946;2023-05-14T12:22:20;25.00;99.90
5842;DHT22;2947;52.276;9.946;2023-05-14T12:24:55;25.00;99.90
5842;DHT22;2947;52.276;9.946;2023-05-14T12:27:25;25.40;99.90
5842;DHT22;2947;52.276;9.946;2023-05-14T12:29:59;26.40;99.90
5842;DHT22;2947;52.276;9.946;2023-05-14T12:32:26;25.40;99.90
5842;DHT22;2947;52.276;9.946;2023-05-14T12:34:52;25.30;99.90
5842;DHT22;2947;52.276;9.946;2023-05-14T12:37:18;25.40;99.90
5842;DHT22;2947;52.276;9.946;2023-05-14T12:39:43;26.10;99.90
5842;DHT22;2947;52.276;9.946;2023-05-14T12:42:09;25.40;99.90
5842;DHT22;2947;52.276;9.946;2023-05-14T12:44:35;25.30;99.90
5842;DHT22;2947;52.276;9.946;2023-05-14T12:47:01;25.20;99.90
5842;DHT22;2947;52.276;9.946;2023-05-14T12:49:26;25.20;99.90
5842;DHT22;2947;52.276;9.946;2023-05-14T12:51:52;25.60;99.90
5842;DHT22;2947;52.276;9.946;2023-05-14T12:54:18;25.00;99.90
5842;DHT22;2947;52.276;9.946;2023-05-14T12:56:43;25.80;99.90
5842;DHT22;2947;52.276;9.946;2023-05-14T12:59:10;25.00;99.90
5842;DHT22;2947;52.276;9.946;2023-05-14T13:01:35;24.70;99.90
5842;DHT22;2947;52.276;9.946;2023-05-14T13:04:02;24.80;99.90
5842;DHT22;2947;52.276;9.946;2023-05-14T13:06:29;24.70;99.90
5842;DHT22;2947;52.276;9.946;2023-05-14T13:08:56;24.60;99.90
5842;DHT22;2947;52.276;9.946;2023-05-14T13:11:24;24.50;99.90
5842;DHT22;2947;52.276;9.946;2023-05-14T13:13:51;24.50;99.90
5842;DHT22;2947;52.276;9.946;2023-05-14T13:16:17;24.30;99.90
5842;DHT22;2947;52.276;9.946;2023-05-14T13:18:42;24.20;99.90
5842;DHT22;2947;52.276;9.946;2023-05-14T13:21:08;24.10;99.90
5842;DHT22;2947;52.276;9.946;2023-05-14T13:23:34;24.00;99.90
5842;DHT22;2947;52.276;9.946;2023-05-14T13:25:59;23.80;99.90
5842;DHT22;2947;52.276;9.946;2023-05-14T13:28:25;24.00;99.90
5842;DHT22;2947;52.276;9.946;2023-05-14T13:31:08;23.90;99.90
5842;DHT22;2947;52.276;9.946;2023-05-14T13:33:36;23.80;99.90
5842;DHT22;2947;52.276;9.946;2023-05-14T13:36:04;23.70;99.90
5842;DHT22;2947;52.276;9.946;2023-05-14T13:38:29;23.70;99.90
5842;DHT22;2947;52.276;9.946;2023-05-14T13:40:56;23.50;99.90
5842;DHT22;2947;52.276;9.946;2023-05-14T13:43:26;24.00;99.90
5842;DHT22;2947;52.276;9.946;2023-05-14T13:45:51;23.40;99.90
5842;DHT22;2947;52.276;9.946;2023-05-14T13:48:17;23.50;99.90
5842;DHT22;2947;52.276;9.946;2023-05-14T13:50:43;23.50;99.90
5842;DHT22;2947;52.276;9.946;2023-05-14T13:53:08;23.50;99.90
5842;DHT22;2947;52.276;9.946;2023-05-14T13:55:34;23.40;99.90
5842;DHT22;2947;52.276;9.946;2023-05-14T13:58:00;23.20;99.90
5842;DHT22;2947;52.276;9.946;2023-05-14T14:00:26;23.30;99.90
5842;DHT22;2947;52.276;9.946;2023-05-14T14:02:53;23.10;99.90
5842;DHT22;2947;52.276;9.946;2023-05-14T14:05:19;22.70;99.90
5842;DHT22;2947;52.276;9.946;2023-05-14T14:07:45;22.20;99.90
5842;DHT22;2947;52.276;9.946;2023-05-14T14:10:11;21.90;99.90
5842;DHT22;2947;52.276;9.946;2023-05-14T14:12:36;20.70;99.90
5842;DHT22;2947;52.276;9.946;2023-05-14T14:15:03;21.40;99.90
5842;DHT22;2947;52.276;9.946;2023-05-14T14:17:29;21.30;99.90
5842;DHT22;2947;52.276;9.946;2023-05-14T14:19:55;21.10;99.90
5842;DHT22;2947;52.276;9.946;2023-05-14T14:22:21;20.80;99.90
5842;DHT22;2947;52.276;9.946;2023-05-14T14:24:46;20.80;99.90
5842;DHT22;2947;52.276;9.946;2023-05-14T14:27:12;20.70;99.90
5842;DHT22;2947;52.276;9.946;2023-05-14T14:29:38;20.60;99.90
5842;DHT22;2947;52.276;9.946;2023-05-14T14:32:04;21.90;99.90
5842;DHT22;2947;52.276;9.946;2023-05-14T14:34:30;20.50;99.90
5842;DHT22;2947;52.276;9.946;2023-05-14T14:36:56;22.00;99.90
5842;DHT22;2947;52.276;9.946;2023-05-14T14:39:21;20.60;99.90
5842;DHT22;2947;52.276;9.946;2023-05-14T14:41:49;20.60;99.90
5842;DHT22;2947;52.276;9.946;2023-05-14T14:44:15;20.50;99.90
5842;DHT22;2947;52.276;9.946;2023-05-14T14:46:41;20.40;99.90
5842;DHT22;2947;52.276;9.946;2023-05-14T14:49:07;20.40;99.90
5842;DHT22;2947;52.276;9.946;2023-05-14T14:51:33;20.30;99.90
5842;DHT22;2947;52.276;9.946;2023-05-14T14:53:59;20.20;99.90
5842;DHT22;2947;52.276;9.946;2023-05-14T14:56:25;20.20;99.90
5842;DHT22;2947;52.276;9.946;2023-05-14T14:58:52;20.00;99.90
5842;DHT22;2947;52.276;9.946;2023-05-14T15:01:19;20.90;99.90
5842;DHT22;2947;52.276;9.946;2023-05-14T15:03:45;19.70;99.90
5842;DHT22;2947;52.276;9.946;2023-05-14T15:06:12;20.50;99.90
5842;DHT22;2947;52.276;9.946;2023-05-14T15:08:38;20.30;99.90
5842;DHT22;2947;52.276;9.946;2023-05-14T15:11:04;19.40;99.90
5842;DHT22;2947;52.276;9.946;2023-05-14T15:13:33;19.20;99.90
5842;DHT22;2947;52.276;9.946;2023-05-14T15:15:58;19.20;99.90
5842;DHT22;2947;52.276;9.946;2023-05-14T15:18:25;19.10;99.90
5842;DHT22;2947;52.276;9.946;2023-05-14T15:20:51;19.00;99.90
5842;DHT22;2947;52.276;9.946;2023-05-14T15:23:17;19.00;99.90
5842;DHT22;2947;52.276;9.946;2023-05-14T15:25:43;19.10;99.90
5842;DHT22;2947;52.276;9.946;2023-05-14T15:28:09;19.10;99.90
5842;DHT22;2947;52.276;9.946;2023-05-14T15:30:35;18.10;99.90
5842;DHT22;2947;52.276;9.946;2023-05-14T15:33:01;19.20;99.90
5842;DHT22;2947;52.276;9.946;2023-05-14T15:35:26;19.40;99.90
5842;DHT22;2947;52.276;9.946;2023-05-14T15:37:54;19.40;99.90
5842;DHT22;2947;52.276;9.946;2023-05-14T15:40:23;19.40;99.90
5842;DHT22;2947;52.276;9.946;2023-05-14T15:42:48;19.50;99.90
5842;DHT22;2947;52.276;9.946;2023-05-14T15:45:14;19.70;99.90
5842;DHT22;2947;52.276;9.946;2023-05-14T15:47:40;19.80;99.90
5842;DHT22;2947;52.276;9.946;2023-05-14T15:50:08;19.90;99.90
5842;DHT22;2947;52.276;9.946;2023-05-14T15:52:34;19.90;99.90
5842;DHT22;2947;52.276;9.946;2023-05-14T15:55:00;20.70;99.90
5842;DHT22;2947;52.276;9.946;2023-05-14T15:57:26;21.30;99.90
5842;DHT22;2947;52.276;9.946;2023-05-14T15:59:52;20.40;99.90
5842;DHT22;2947;52.276;9.946;2023-05-14T16:02:18;20.40;99.90
5842;DHT22;2947;52.276;9.946;2023-05-14T16:04:43;20.50;99.90
5842;DHT22;2947;52.276;9.946;2023-05-14T16:07:10;20.50;99.90
5842;DHT22;2947;52.276;9.946;2023-05-14T16:09:37;20.80;99.90
5842;DHT22;2947;52.276;9.946;2023-05-14T16:12:04;21.60;99.90
5842;DHT22;2947;52.276;9.946;2023-05-14T16:14:33;20.80;99.90
5842;DHT22;2947;52.276;9.946;2023-05-14T16:16:59;21.70;99.90
5842;DHT22;2947;52.276;9.946;2023-05-14T16:19:26;20.90;99.90
5842;DHT22;2947;52.276;9.946;2023-05-14T16:21:52;20.90;99.90
5842;DHT22;2947;52.276;9.946;2023-05-14T16:24:18;21.00;99.90
5842;DHT22;2947;52.276;9.946;2023-05-14T16:26:44;21.90;99.90
5842;DHT22;2947;52.276;9.946;2023-05-14T16:29:10;21.80;99.90
5842;DHT22;2947;52.276;9.946;2023-05-14T16:31:36;21.10;99.90
5842;DHT22;2947;52.276;9.946;2023-05-14T16:34:02;21.10;99.90
5842;DHT22;2947;52.276;9.946;2023-05-14T16:36:27;21.10;99.90
5842;DHT22;2947;52.276;9.946;2023-05-14T16:38:53;21.20;99.90
5842;DHT22;2947;52.276;9.946;2023-05-14T16:41:19;21.20;99.90
5842;DHT22;2947;52.276;9.946;2023-05-14T16:43:46;21.30;99.90